Time;durP1;ratioP1;P1;durP2;ratioP2;P2;SDS_P1;SDS_P2;PMS_P1;PMS_P2;Temp;Humidity;BMP_temperature;BMP_pressure;BME280_temperature;BME280_humidity;BME280_pressure;Samples;Min_cycle;Max_cycle;Signal;HPM_P1;HPM_P2
2022/08/20 00:00:07;;;;;;;43.40;7.35;;;;;;;;;;4992594;28;20034;-48
2022/08/20 00:03:03;;;;;;;58.25;8.65;;;;;;;;;;4991918;28;20125;-53
2022/08/20 00:05:32;;;;;;;51.85;8.00;;;;;;;;;;4971215;28;20046;-50
2022/08/20 00:07:59;;;;;;;40.25;5.90;;;;;;;;;;4990940;28;20088;-50
2022/08/20 00:10:27;;;;;;;40.40;6.93;;;;;;;;;;4990489;28;20089;-49
2022/08/20 00:12:54;;;;;;;47.67;7.68;;;;;;;;;;4990937;28;20251;-50
2022/08/20 00:15:24;;;;;;;45.95;7.03;;;;;;;;;;4989601;28;20038;-48
2022/08/20 00:17:53;;;;;;;36.55;6.30;;;;;;;;;;4990314;28;20049;-52
2022/08/20 00:20:21;;;;;;;42.90;6.95;;;;;;;;;;4990477;28;20058;-55
2022/08/20 00:22:48;;;;;;;35.58;6.57;;;;;;;;;;4990509;28;20048;-48
2022/08/20 00:25:16;;;;;;;35.75;6.38;;;;;;;;;;4989241;28;20471;-51
2022/08/20 00:27:43;;;;;;;48.58;7.03;;;;;;;;;;4991830;28;20030;-51
2022/08/20 00:30:11;;;;;;;51.13;7.53;;;;;;;;;;4990200;28;20093;-54
2022/08/20 00:32:42;;;;;;;45.38;7.13;;;;;;;;;;4991026;28;20027;-49
2022/08/20 00:35:09;;;;;;;38.38;6.78;;;;;;;;;;4991620;28;20038;-51
2022/08/20 00:37:37;;;;;;;50.13;7.95;;;;;;;;;;4991293;28;20038;-53
2022/08/20 00:40:04;;;;;;;41.83;6.68;;;;;;;;;;4990866;28;20073;-50
2022/08/20 00:42:39;;;;;;;41.97;7.13;;;;;;;;;;4990947;28;20033;-53
2022/08/20 00:45:06;;;;;;;39.40;7.03;;;;;;;;;;4991623;28;20027;-53
2022/08/20 00:47:34;;;;;;;38.42;6.22;;;;;;;;;;4991429;28;20089;-51
2022/08/20 00:50:01;;;;;;;37.40;5.93;;;;;;;;;;4991471;28;20045;-56
2022/08/20 00:52:28;;;;;;;33.15;6.32;;;;;;;;;;4991723;28;20079;-47
2022/08/20 00:54:58;;;;;;;35.67;6.53;;;;;;;;;;4989779;28;20025;-53
2022/08/20 00:57:31;;;;;;;40.40;6.60;;;;;;;;;;4991012;28;20034;-50
2022/08/20 00:59:59;;;;;;;32.55;6.47;;;;;;;;;;4992038;28;20049;-47
2022/08/20 01:02:28;;;;;;;40.13;6.45;;;;;;;;;;4992095;28;20481;-52
2022/08/20 01:04:55;;;;;;;45.47;7.05;;;;;;;;;;4992045;28;20034;-51
2022/08/20 01:07:31;;;;;;;33.15;6.40;;;;;;;;;;4992414;28;20039;-52
2022/08/20 01:10:02;;;;;;;33.72;5.50;;;;;;;;;;4992707;28;20038;-51
2022/08/20 01:12:30;;;;;;;35.93;6.53;;;;;;;;;;4993010;28;20034;-50
2022/08/20 01:14:58;;;;;;;34.08;5.75;;;;;;;;;;4992541;28;20030;-47
2022/08/20 01:17:27;;;;;;;27.63;5.60;;;;;;;;;;4989607;28;20053;-53
2022/08/20 01:19:58;;;;;;;32.10;5.88;;;;;;;;;;4991931;28;20050;-52
2022/08/20 01:25:17;;;;;;;30.17;6.22;;;;;;;;;;4991904;28;20132;-54
2022/08/20 01:27:45;;;;;;;23.20;5.13;;;;;;;;;;4988948;28;20101;-53
2022/08/20 01:30:12;;;;;;;25.20;5.50;;;;;;;;;;4972338;28;20109;-53
2022/08/20 01:32:39;;;;;;;26.52;5.20;;;;;;;;;;4990837;28;20112;-47
2022/08/20 01:35:08;;;;;;;21.30;4.53;;;;;;;;;;4991335;28;20038;-51
2022/08/20 01:37:35;;;;;;;22.50;5.60;;;;;;;;;;4991084;28;20053;-51
2022/08/20 01:40:03;;;;;;;22.38;4.50;;;;;;;;;;4972751;28;20030;-49
2022/08/20 01:42:38;;;;;;;26.60;5.10;;;;;;;;;;4955902;28;20022;-49
2022/08/20 01:45:06;;;;;;;21.50;4.88;;;;;;;;;;4973481;28;20039;-49
2022/08/20 01:47:34;;;;;;;34.22;4.60;;;;;;;;;;4983931;28;20439;-49
2022/08/20 01:50:04;;;;;;;21.50;4.40;;;;;;;;;;4992634;28;20101;-50
2022/08/20 01:52:31;;;;;;;23.95;4.55;;;;;;;;;;4991529;28;20042;-46
2022/08/20 01:54:58;;;;;;;31.65;7.43;;;;;;;;;;4992714;28;20030;-48
2022/08/20 01:57:26;;;;;;;39.67;9.02;;;;;;;;;;4992597;28;20129;-50
2022/08/20 01:59:53;;;;;;;40.05;8.57;;;;;;;;;;4992733;28;20085;-49
2022/08/20 02:02:20;;;;;;;36.97;8.75;;;;;;;;;;4991567;28;20029;-49
2022/08/20 02:04:47;;;;;;;38.63;9.32;;;;;;;;;;4991191;28;20030;-51
2022/08/20 02:07:17;;;;;;;48.53;9.93;;;;;;;;;;4991873;28;20470;-50
2022/08/20 02:09:44;;;;;;;43.63;9.65;;;;;;;;;;4990733;28;20428;-47
2022/08/20 02:12:13;;;;;;;47.83;10.27;;;;;;;;;;4990645;28;20104;-53
2022/08/20 02:14:41;;;;;;;45.38;10.80;;;;;;;;;;4990839;28;20080;-49
2022/08/20 02:17:08;;;;;;;51.47;11.68;;;;;;;;;;4990605;28;20449;-50
2022/08/20 02:19:40;;;;;;;42.88;9.77;;;;;;;;;;4991052;28;20029;-50
2022/08/20 02:22:14;;;;;;;47.17;10.75;;;;;;;;;;4995188;28;20038;-49
2022/08/20 02:24:42;;;;;;;36.25;10.00;;;;;;;;;;4994724;28;20046;-52
2022/08/20 02:27:09;;;;;;;36.05;10.20;;;;;;;;;;4994319;28;20034;-50
2022/08/20 02:29:37;;;;;;;43.78;10.50;;;;;;;;;;4961550;28;20033;-54
2022/08/20 02:32:05;;;;;;;41.13;10.38;;;;;;;;;;4994604;28;20807;-49
2022/08/20 02:34:36;;;;;;;38.83;9.60;;;;;;;;;;4992064;28;20023;-50
2022/08/20 02:37:04;;;;;;;43.42;10.15;;;;;;;;;;4993555;28;20026;-51
2022/08/20 02:39:32;;;;;;;34.70;9.48;;;;;;;;;;4994629;28;20026;-50
2022/08/20 02:41:59;;;;;;;35.13;8.88;;;;;;;;;;4994652;28;20496;-50
2022/08/20 02:44:26;;;;;;;32.05;9.10;;;;;;;;;;4963302;28;20049;-49
2022/08/20 02:46:53;;;;;;;36.88;9.98;;;;;;;;;;4994687;28;20022;-49
2022/08/20 02:49:20;;;;;;;34.78;8.65;;;;;;;;;;4994622;28;20034;-48
2022/08/20 02:51:48;;;;;;;33.08;8.68;;;;;;;;;;4994490;28;20104;-54
2022/08/20 02:54:16;;;;;;;31.17;7.82;;;;;;;;;;4994581;28;20037;-55
2022/08/20 02:56:44;;;;;;;28.25;7.70;;;;;;;;;;4994266;28;20034;-53
2022/08/20 02:59:11;;;;;;;27.63;7.68;;;;;;;;;;4994570;28;20385;-55
2022/08/20 03:01:39;;;;;;;29.15;6.90;;;;;;;;;;4960550;28;20441;-52
2022/08/20 03:04:06;;;;;;;25.17;7.22;;;;;;;;;;4994300;28;20037;-51
2022/08/20 03:06:33;;;;;;;31.48;8.15;;;;;;;;;;4990498;28;20033;-51
2022/08/20 03:09:01;;;;;;;23.38;7.28;;;;;;;;;;4975892;28;20058;-52
2022/08/20 03:11:28;;;;;;;27.77;6.90;;;;;;;;;;4986273;28;20050;-50
2022/08/20 03:13:55;;;;;;;27.13;7.32;;;;;;;;;;4993943;28;20057;-54
2022/08/20 03:16:22;;;;;;;25.42;6.90;;;;;;;;;;4994362;28;20499;-48
2022/08/20 03:18:54;;;;;;;28.75;7.18;;;;;;;;;;4994022;28;20508;-54
2022/08/20 03:21:21;;;;;;;25.77;6.55;;;;;;;;;;4994211;28;20031;-49
2022/08/20 03:23:49;;;;;;;26.20;6.13;;;;;;;;;;4994296;28;20480;-53
2022/08/20 03:26:16;;;;;;;21.23;6.90;;;;;;;;;;4993995;28;20023;-48
2022/08/20 03:28:43;;;;;;;20.55;6.13;;;;;;;;;;4994280;28;20113;-47
2022/08/20 03:31:11;;;;;;;24.65;7.00;;;;;;;;;;4993609;28;20023;-48
2022/08/20 03:33:38;;;;;;;20.15;6.40;;;;;;;;;;4994466;28;20029;-48
2022/08/20 03:36:06;;;;;;;24.75;6.40;;;;;;;;;;4994593;28;20022;-47
2022/08/20 03:38:33;;;;;;;20.75;6.50;;;;;;;;;;4994228;28;20053;-54
2022/08/20 03:41:01;;;;;;;22.35;5.90;;;;;;;;;;4994545;28;20049;-50
2022/08/20 03:43:29;;;;;;;19.30;5.88;;;;;;;;;;4994508;28;20026;-52
2022/08/20 03:45:56;;;;;;;20.63;5.70;;;;;;;;;;4994428;28;20484;-52
2022/08/20 03:48:23;;;;;;;21.10;5.78;;;;;;;;;;4994551;28;20488;-54
2022/08/20 03:50:51;;;;;;;19.38;5.60;;;;;;;;;;4994475;28;20056;-54
2022/08/20 03:53:19;;;;;;;16.40;5.68;;;;;;;;;;4994346;28;20441;-51
2022/08/20 03:55:47;;;;;;;17.80;5.53;;;;;;;;;;4994284;28;20030;-49
2022/08/20 03:58:16;;;;;;;17.00;5.05;;;;;;;;;;4994400;28;20104;-54
2022/08/20 04:00:50;;;;;;;18.70;5.07;;;;;;;;;;4994188;28;20038;-54
2022/08/20 04:03:17;;;;;;;16.48;4.95;;;;;;;;;;4994244;28;20022;-52
2022/08/20 04:05:44;;;;;;;16.33;4.88;;;;;;;;;;4994238;28;20034;-51
2022/08/20 04:08:16;;;;;;;13.38;4.70;;;;;;;;;;4994259;28;20026;-53
2022/08/20 04:10:45;;;;;;;12.18;4.57;;;;;;;;;;4993989;28;20042;-53
2022/08/20 04:13:12;;;;;;;14.95;4.93;;;;;;;;;;4993988;28;20374;-49
2022/08/20 04:15:40;;;;;;;17.65;5.07;;;;;;;;;;4976497;28;20429;-53
2022/08/20 04:18:08;;;;;;;16.48;4.88;;;;;;;;;;4993796;28;20046;-50
2022/08/20 04:20:36;;;;;;;16.48;4.75;;;;;;;;;;4993934;28;20034;-53
2022/08/20 04:23:04;;;;;;;13.25;4.63;;;;;;;;;;4994060;28;20377;-49
2022/08/20 04:25:31;;;;;;;15.93;4.82;;;;;;;;;;4993783;28;20113;-53
2022/08/20 04:27:59;;;;;;;11.68;4.38;;;;;;;;;;4993901;28;20030;-49
2022/08/20 04:30:26;;;;;;;11.57;3.90;;;;;;;;;;4993832;28;20026;-51
2022/08/20 04:32:54;;;;;;;10.10;3.85;;;;;;;;;;4993840;28;20084;-49
2022/08/20 04:35:23;;;;;;;14.20;4.45;;;;;;;;;;4993411;28;20041;-50
2022/08/20 04:37:50;;;;;;;11.20;3.72;;;;;;;;;;4993572;28;20456;-51
2022/08/20 04:43:04;;;;;;;11.43;4.32;;;;;;;;;;4993586;28;20045;-51
2022/08/20 04:45:32;;;;;;;11.07;3.72;;;;;;;;;;4993434;28;20026;-49
2022/08/20 04:48:04;;;;;;;14.23;4.15;;;;;;;;;;4993584;28;20041;-50
2022/08/20 04:50:35;;;;;;;11.50;3.33;;;;;;;;;;4993591;28;20030;-50
2022/08/20 04:53:06;;;;;;;9.80;3.50;;;;;;;;;;4993560;28;20145;-49
2022/08/20 04:55:34;;;;;;;8.88;3.30;;;;;;;;;;4993242;28;20547;-51
2022/08/20 04:58:09;;;;;;;10.25;3.55;;;;;;;;;;4993396;28;20027;-51
2022/08/20 05:00:37;;;;;;;8.25;3.53;;;;;;;;;;4993456;28;20030;-52
2022/08/20 05:03:07;;;;;;;9.48;3.88;;;;;;;;;;4993415;28;20041;-55
2022/08/20 05:05:35;;;;;;;11.07;3.00;;;;;;;;;;4993146;28;20045;-49
2022/08/20 05:08:02;;;;;;;13.02;3.17;;;;;;;;;;4993339;28;20030;-49
2022/08/20 05:10:29;;;;;;;9.80;3.20;;;;;;;;;;4993017;28;20628;-50
2022/08/20 05:12:56;;;;;;;10.45;3.50;;;;;;;;;;4993199;28;20103;-53
2022/08/20 05:15:24;;;;;;;8.18;2.80;;;;;;;;;;4993178;28;20105;-49
2022/08/20 05:17:55;;;;;;;9.73;3.70;;;;;;;;;;4993038;28;20577;-50
2022/08/20 05:20:22;;;;;;;10.75;3.72;;;;;;;;;;4993219;28;20030;-50
2022/08/20 05:22:50;;;;;;;8.23;2.95;;;;;;;;;;4993195;28;20034;-49
2022/08/20 05:25:17;;;;;;;8.00;2.83;;;;;;;;;;4993070;28;20034;-49
2022/08/20 05:27:44;;;;;;;9.07;2.38;;;;;;;;;;4993165;28;20077;-49
2022/08/20 05:30:11;;;;;;;6.55;2.70;;;;;;;;;;4993168;28;20038;-51
2022/08/20 05:32:39;;;;;;;8.88;3.03;;;;;;;;;;4993108;28;20026;-53
2022/08/20 05:35:08;;;;;;;8.70;2.63;;;;;;;;;;4993000;28;20034;-56
2022/08/20 05:37:36;;;;;;;7.35;2.78;;;;;;;;;;4993017;28;20034;-50
2022/08/20 05:40:09;;;;;;;5.90;2.70;;;;;;;;;;4993029;28;20425;-50
2022/08/20 05:42:36;;;;;;;;;;;;;;;;;;4993310;28;20030;-51
2022/08/20 05:45:04;;;;;;;6.60;2.28;;;;;;;;;;4992846;28;19916;-48
2022/08/20 05:47:32;;;;;;;7.88;3.25;;;;;;;;;;4992993;28;20041;-52
2022/08/20 05:49:59;;;;;;;7.15;2.25;;;;;;;;;;4992957;28;20027;-50
2022/08/20 05:52:26;;;;;;;9.13;3.33;;;;;;;;;;4992917;28;20027;-55
2022/08/20 05:54:54;;;;;;;5.88;2.45;;;;;;;;;;4993698;28;20045;-52
2022/08/20 05:57:21;;;;;;;6.50;2.35;;;;;;;;;;4996533;28;20043;-48
2022/08/20 05:59:48;;;;;;;6.57;2.30;;;;;;;;;;4996591;28;20026;-52
2022/08/20 06:05:00;;;;;;;5.38;2.05;;;;;;;;;;5016091;28;20036;-48
2022/08/20 06:07:27;;;;;;;5.60;2.00;;;;;;;;;;5015938;28;20053;-46
2022/08/20 06:09:54;;;;;;;7.15;2.33;;;;;;;;;;5015825;28;20041;-49
2022/08/20 06:12:21;;;;;;;5.82;1.98;;;;;;;;;;5015950;28;20056;-52
2022/08/20 06:14:48;;;;;;;5.55;2.10;;;;;;;;;;5015856;28;20076;-49
2022/08/20 06:17:17;;;;;;;9.20;2.13;;;;;;;;;;5015696;28;20057;-49
2022/08/20 06:19:45;;;;;;;3.97;1.75;;;;;;;;;;5015881;28;20018;-47
2022/08/20 06:22:13;;;;;;;6.35;2.22;;;;;;;;;;5015827;28;20100;-47
2022/08/20 06:24:40;;;;;;;5.65;2.10;;;;;;;;;;5015766;28;20018;-48
2022/08/20 06:27:07;;;;;;;7.03;1.83;;;;;;;;;;5015602;28;20075;-52
2022/08/20 06:29:35;;;;;;;5.95;2.00;;;;;;;;;;5015604;28;20076;-52
2022/08/20 06:32:02;;;;;;;3.78;1.80;;;;;;;;;;5015650;28;20025;-50
2022/08/20 06:34:30;;;;;;;4.97;1.52;;;;;;;;;;5015607;28;20021;-48
2022/08/20 06:36:57;;;;;;;5.72;1.85;;;;;;;;;;5015280;28;20051;-49
2022/08/20 06:39:25;;;;;;;3.88;1.52;;;;;;;;;;5159569;23;20051;-45
2022/08/20 06:41:52;;;;;;;5.85;1.90;;;;;;;;;;4992618;28;20022;-49
2022/08/20 06:44:19;;;;;;;5.63;1.83;;;;;;;;;;4995543;28;20026;-48
2022/08/20 06:46:46;;;;;;;4.30;1.73;;;;;;;;;;4995796;28;20050;-49
2022/08/20 06:49:13;;;;;;;3.83;1.60;;;;;;;;;;4995640;28;20479;-46
2022/08/20 06:51:40;;;;;;;4.13;1.40;;;;;;;;;;4995714;28;20028;-46
2022/08/20 06:54:07;;;;;;;4.57;1.77;;;;;;;;;;4995566;28;20029;-46
2022/08/20 06:56:34;;;;;;;4.32;1.63;;;;;;;;;;4995492;28;20062;-50
2022/08/20 06:59:01;;;;;;;5.32;1.77;;;;;;;;;;4995365;28;20038;-50
2022/08/20 07:01:28;;;;;;;3.80;1.73;;;;;;;;;;4995196;28;20097;-48
2022/08/20 07:03:58;;;;;;;4.90;2.03;;;;;;;;;;4995309;28;20030;-49
2022/08/20 07:06:25;;;;;;;5.90;2.00;;;;;;;;;;4995021;28;20031;-50
2022/08/20 07:08:52;;;;;;;2.92;1.30;;;;;;;;;;4995234;28;20027;-48
2022/08/20 07:11:19;;;;;;;3.60;1.60;;;;;;;;;;4995291;28;20019;-52
2022/08/20 07:13:48;;;;;;;5.05;1.65;;;;;;;;;;4995272;28;20033;-48
2022/08/20 07:16:15;;;;;;;6.25;1.50;;;;;;;;;;4995112;28;20466;-50
2022/08/20 07:18:42;;;;;;;4.57;1.50;;;;;;;;;;4995036;28;20039;-48
2022/08/20 07:21:10;;;;;;;3.83;1.30;;;;;;;;;;4995153;28;20479;-47
2022/08/20 07:23:37;;;;;;;4.82;1.35;;;;;;;;;;4995045;28;20031;-49
2022/08/20 07:26:06;;;;;;;4.88;1.60;;;;;;;;;;4995005;28;20120;-47
2022/08/20 07:28:33;;;;;;;5.03;1.67;;;;;;;;;;4994821;28;20038;-48
2022/08/20 07:33:46;;;;;;;4.47;1.38;;;;;;;;;;4994884;28;20037;-50
2022/08/20 07:36:13;;;;;;;3.05;1.40;;;;;;;;;;4994797;28;20037;-46
2022/08/20 07:38:40;;;;;;;2.83;1.17;;;;;;;;;;4994410;28;20038;-46
2022/08/20 07:41:08;;;;;;;2.72;1.58;;;;;;;;;;4994596;28;20054;-47
2022/08/20 07:43:35;;;;;;;2.83;1.30;;;;;;;;;;4994625;28;20019;-47
2022/08/20 07:46:07;;;;;;;4.25;1.08;;;;;;;;;;4994633;28;20022;-51
2022/08/20 07:48:38;;;;;;;2.92;1.30;;;;;;;;;;4994322;28;20030;-52
2022/08/20 07:51:06;;;;;;;3.85;1.42;;;;;;;;;;4976986;28;20117;-47
2022/08/20 07:53:34;;;;;;;3.88;1.27;;;;;;;;;;4994452;28;20054;-49
2022/08/20 07:56:02;;;;;;;2.92;1.17;;;;;;;;;;4994444;28;20033;-49
2022/08/20 07:58:29;;;;;;;2.83;1.30;;;;;;;;;;4994318;28;20027;-51
2022/08/20 08:00:56;;;;;;;3.20;1.30;;;;;;;;;;4994251;28;20498;-46
2022/08/20 08:03:23;;;;;;;3.67;1.33;;;;;;;;;;4994310;28;20018;-48
2022/08/20 08:05:50;;;;;;;2.60;0.90;;;;;;;;;;4994320;28;20018;-51
2022/08/20 08:08:21;;;;;;;2.55;1.00;;;;;;;;;;4994207;28;20093;-47
2022/08/20 08:10:50;;;;;;;3.50;1.27;;;;;;;;;;4994054;28;20480;-48
2022/08/20 08:13:17;;;;;;;2.78;1.27;;;;;;;;;;4994189;28;20026;-45
2022/08/20 08:15:46;;;;;;;4.53;1.33;;;;;;;;;;4994113;28;20520;-47
2022/08/20 08:18:24;;;;;;;3.70;1.00;;;;;;;;;;4993222;28;20034;-49
2022/08/20 08:20:52;;;;;;;3.53;1.23;;;;;;;;;;4993898;28;20025;-47
2022/08/20 08:23:22;;;;;;;2.03;0.90;;;;;;;;;;4993898;28;20034;-46
2022/08/20 08:25:53;;;;;;;3.25;1.30;;;;;;;;;;4993768;28;20034;-46
2022/08/20 08:28:21;;;;;;;3.05;1.23;;;;;;;;;;4993943;28;20030;-45
2022/08/20 08:30:48;;;;;;;2.47;1.02;;;;;;;;;;4993794;28;20076;-45
2022/08/20 08:33:29;;;;;;;2.53;1.20;;;;;;;;;;4993878;28;20085;-46
2022/08/20 08:36:08;;;;;;;3.42;1.23;;;;;;;;;;4993718;28;20015;-45
2022/08/20 08:38:39;;;;;;;2.78;1.00;;;;;;;;;;4993480;28;20026;-49
2022/08/20 08:41:20;;;;;;;3.03;1.20;;;;;;;;;;4993493;28;20050;-49
2022/08/20 08:43:49;;;;;;;2.17;1.00;;;;;;;;;;4993647;28;20138;-50
2022/08/20 08:46:21;;;;;;;2.47;1.00;;;;;;;;;;4993637;28;20054;-49
2022/08/20 08:48:49;;;;;;;1.90;1.00;;;;;;;;;;4993363;28;20400;-50
2022/08/20 08:51:17;;;;;;;2.67;1.10;;;;;;;;;;4993436;28;20383;-47
2022/08/20 08:53:53;;;;;;;2.15;1.00;;;;;;;;;;4993531;28;20026;-45
2022/08/20 08:56:21;;;;;;;2.10;0.82;;;;;;;;;;4993376;28;20488;-47
2022/08/20 08:58:48;;;;;;;1.20;0.73;;;;;;;;;;4993334;28;20049;-47
2022/08/20 09:01:17;;;;;;;4.07;1.05;;;;;;;;;;4993423;28;20026;-46
2022/08/20 09:03:46;;;;;;;2.25;1.00;;;;;;;;;;4993336;28;20030;-48
2022/08/20 09:06:14;;;;;;;2.28;1.00;;;;;;;;;;4993390;28;20014;-49
2022/08/20 09:08:46;;;;;;;3.38;0.98;;;;;;;;;;4993255;28;20088;-47
2022/08/20 09:11:14;;;;;;;2.35;1.30;;;;;;;;;;4993308;28;20569;-46
2022/08/20 09:13:42;;;;;;;2.40;1.00;;;;;;;;;;4993062;28;20031;-49
2022/08/20 09:16:09;;;;;;;7.05;1.17;;;;;;;;;;4993280;28;20014;-48
2022/08/20 09:18:36;;;;;;;2.50;0.98;;;;;;;;;;4993016;28;20100;-47
2022/08/20 09:21:03;;;;;;;2.55;0.98;;;;;;;;;;4993205;28;20019;-45
2022/08/20 09:23:30;;;;;;;1.73;0.90;;;;;;;;;;4993164;28;20053;-49
2022/08/20 09:25:57;;;;;;;1.98;0.90;;;;;;;;;;4992914;28;20392;-47
2022/08/20 09:28:24;;;;;;;2.90;1.00;;;;;;;;;;4993222;28;20023;-46
2022/08/20 09:30:51;;;;;;;2.55;1.10;;;;;;;;;;4997165;28;20076;-45
2022/08/20 09:33:18;;;;;;;3.13;1.15;;;;;;;;;;4997114;28;20503;-48
2022/08/20 09:35:45;;;;;;;2.20;1.08;;;;;;;;;;4997068;28;20435;-48
2022/08/20 09:38:13;;;;;;;2.50;1.30;;;;;;;;;;4979307;28;20396;-47
2022/08/20 09:40:40;;;;;;;2.58;1.08;;;;;;;;;;4996607;28;20050;-45
2022/08/20 09:43:07;;;;;;;3.10;1.10;;;;;;;;;;4996870;28;20499;-47
2022/08/20 09:45:35;;;;;;;2.47;1.17;;;;;;;;;;4996861;28;20023;-48
2022/08/20 09:48:02;;;;;;;2.42;1.00;;;;;;;;;;4996789;28;20041;-46
2022/08/20 09:50:30;;;;;;;3.38;1.10;;;;;;;;;;4996721;28;20026;-47
2022/08/20 09:52:58;;;;;;;2.85;1.15;;;;;;;;;;4996908;28;20121;-46
2022/08/20 09:55:44;;;;;;;2.67;1.20;;;;;;;;;;4996607;28;20065;-48
2022/08/20 09:58:14;;;;;;;3.17;1.60;;;;;;;;;;4996410;28;20046;-49
2022/08/20 10:00:41;;;;;;;2.38;1.15;;;;;;;;;;4996432;28;20046;-48
2022/08/20 10:03:08;;;;;;;1.67;0.82;;;;;;;;;;4996564;28;20030;-49
2022/08/20 10:05:35;;;;;;;2.17;1.15;;;;;;;;;;4996469;28;20484;-48
2022/08/20 10:08:06;;;;;;;2.90;1.30;;;;;;;;;;4978973;28;20033;-46
2022/08/20 10:10:33;;;;;;;3.50;1.17;;;;;;;;;;4996319;28;20097;-47
2022/08/20 10:13:01;;;;;;;2.17;1.00;;;;;;;;;;4996362;28;20066;-48
2022/08/20 10:15:28;;;;;;;3.70;1.30;;;;;;;;;;4996474;28;20472;-46
2022/08/20 10:17:58;;;;;;;3.15;1.27;;;;;;;;;;4996231;28;20032;-47
2022/08/20 10:20:25;;;;;;;1.95;1.20;;;;;;;;;;4996211;28;20120;-46
2022/08/20 10:22:52;;;;;;;2.28;1.30;;;;;;;;;;4996326;28;20026;-47
2022/08/20 10:25:19;;;;;;;1.88;1.13;;;;;;;;;;4996191;28;20026;-49
2022/08/20 10:27:46;;;;;;;3.60;1.50;;;;;;;;;;4996413;28;20100;-46
2022/08/20 10:30:13;;;;;;;2.28;1.40;;;;;;;;;;4996101;28;20031;-46
2022/08/20 10:32:41;;;;;;;3.20;1.45;;;;;;;;;;4996231;28;20443;-48
2022/08/20 10:35:08;;;;;;;3.97;1.20;;;;;;;;;;4995929;28;20035;-49
2022/08/20 10:37:35;;;;;;;2.15;1.27;;;;;;;;;;4995878;28;20030;-46
2022/08/20 10:40:03;;;;;;;3.25;1.60;;;;;;;;;;4995317;28;20495;-48
2022/08/20 10:42:30;;;;;;;2.55;1.25;;;;;;;;;;4995444;28;20058;-50
2022/08/20 10:44:56;;;;;;;3.17;1.30;;;;;;;;;;4995901;28;20026;-47
2022/08/20 10:47:25;;;;;;;4.15;1.40;;;;;;;;;;4995862;28;20074;-50
2022/08/20 10:49:53;;;;;;;3.70;1.15;;;;;;;;;;4995700;28;20030;-47
2022/08/20 10:52:20;;;;;;;1.90;1.15;;;;;;;;;;4995803;28;20027;-46
2022/08/20 10:54:47;;;;;;;2.08;1.20;;;;;;;;;;4995672;28;20030;-49
2022/08/20 10:57:18;;;;;;;2.22;1.20;;;;;;;;;;4995569;28;20096;-46
2022/08/20 10:59:47;;;;;;;2.20;1.30;;;;;;;;;;4995420;28;20027;-46
2022/08/20 11:02:14;;;;;;;2.67;1.20;;;;;;;;;;4995515;28;20499;-48
2022/08/20 11:04:41;;;;;;;1.80;1.05;;;;;;;;;;4995579;28;20029;-47
2022/08/20 11:07:12;;;;;;;2.83;1.10;;;;;;;;;;4995473;28;20029;-47
2022/08/20 11:09:39;;;;;;;1.52;0.95;;;;;;;;;;4995356;28;20023;-46
2022/08/20 11:12:06;;;;;;;1.67;0.90;;;;;;;;;;4995305;28;20022;-47
2022/08/20 11:14:33;;;;;;;4.35;1.40;;;;;;;;;;4995300;28;20400;-49
2022/08/20 11:17:01;;;;;;;1.83;1.00;;;;;;;;;;4995347;28;20019;-48
2022/08/20 11:19:28;;;;;;;2.30;1.17;;;;;;;;;;4995117;28;20034;-47
2022/08/20 11:21:55;;;;;;;3.72;1.30;;;;;;;;;;4995181;28;20031;-47
2022/08/20 11:24:22;;;;;;;3.13;1.00;;;;;;;;;;4995175;28;20025;-46
2022/08/20 11:26:52;;;;;;;3.20;1.30;;;;;;;;;;4995125;28;20023;-46
2022/08/20 11:29:21;;;;;;;2.30;1.30;;;;;;;;;;4995066;28;20397;-48
2022/08/20 11:31:48;;;;;;;3.35;1.40;;;;;;;;;;4994782;28;20089;-50
2022/08/20 11:34:15;;;;;;;3.70;1.15;;;;;;;;;;4995043;28;20026;-47
2022/08/20 11:36:42;;;;;;;2.25;1.30;;;;;;;;;;4994879;28;20481;-47
2022/08/20 11:39:09;;;;;;;2.58;1.10;;;;;;;;;;4994535;28;20492;-47
2022/08/20 11:41:36;;;;;;;1.58;1.00;;;;;;;;;;4994778;28;20022;-49
2022/08/20 11:44:03;;;;;;;1.95;1.20;;;;;;;;;;4994819;28;20026;-46
2022/08/20 11:46:31;;;;;;;3.08;1.20;;;;;;;;;;4994744;28;20505;-46
2022/08/20 11:48:59;;;;;;;2.45;1.00;;;;;;;;;;4993741;28;20027;-46
2022/08/20 11:51:26;;;;;;;2.10;1.20;;;;;;;;;;4993929;28;20113;-46
2022/08/20 11:53:53;;;;;;;3.08;1.33;;;;;;;;;;4992853;28;20037;-46
2022/08/20 11:56:20;;;;;;;6.78;1.30;;;;;;;;;;4992145;28;20026;-53
2022/08/20 11:58:47;;;;;;;4.55;1.58;;;;;;;;;;4992226;28;20045;-45
2022/08/20 12:01:14;;;;;;;5.15;1.50;;;;;;;;;;4990039;28;20031;-46
2022/08/20 12:03:41;;;;;;;4.70;1.60;;;;;;;;;;4992673;28;20030;-47
2022/08/20 12:06:08;;;;;;;7.22;1.65;;;;;;;;;;4992302;28;20105;-49
2022/08/20 12:08:35;;;;;;;3.70;1.73;;;;;;;;;;4990651;28;20077;-46
2022/08/20 12:11:02;;;;;;;4.63;1.40;;;;;;;;;;4986950;28;20065;-46
2022/08/20 12:13:40;;;;;;;3.83;1.67;;;;;;;;;;5119579;27;20326;-53
2022/08/20 12:16:07;;;;;;;2.75;1.48;;;;;;;;;;5100094;28;20492;-48
2022/08/20 12:18:34;;;;;;;3.45;1.65;;;;;;;;;;5100658;28;20481;-47
2022/08/20 12:21:02;;;;;;;4.68;1.25;;;;;;;;;;5098277;28;20035;-48
2022/08/20 12:23:29;;;;;;;7.60;1.77;;;;;;;;;;5099005;28;20028;-48
2022/08/20 12:25:56;;;;;;;4.43;1.50;;;;;;;;;;5098743;28;20020;-47
2022/08/20 12:28:23;;;;;;;3.88;1.45;;;;;;;;;;5099048;28;20035;-45
2022/08/20 12:30:50;;;;;;;4.22;1.50;;;;;;;;;;5098127;28;20121;-48
2022/08/20 12:33:17;;;;;;;9.23;1.98;;;;;;;;;;5097839;28;20496;-50
2022/08/20 12:35:44;;;;;;;4.50;1.90;;;;;;;;;;5098786;28;20430;-50
2022/08/20 12:38:11;;;;;;;5.00;1.90;;;;;;;;;;5099333;28;20111;-48
2022/08/20 12:40:38;;;;;;;10.30;2.20;;;;;;;;;;5097948;28;20020;-48
2022/08/20 12:43:05;;;;;;;28.65;2.53;;;;;;;;;;5098462;28;20024;-53
2022/08/20 12:45:33;;;;;;;29.42;2.95;;;;;;;;;;5099646;28;20043;-55
2022/08/20 12:48:05;;;;;;;11.55;2.05;;;;;;;;;;5098193;28;20020;-51
2022/08/20 12:50:33;;;;;;;11.38;2.50;;;;;;;;;;5091619;28;20024;-54
2022/08/20 12:53:00;;;;;;;9.10;2.60;;;;;;;;;;5088550;28;20024;-56
2022/08/20 12:55:27;;;;;;;5.68;2.08;;;;;;;;;;5088660;28;20024;-55
2022/08/20 12:57:55;;;;;;;6.30;2.00;;;;;;;;;;5088617;28;20533;-53
2022/08/20 13:00:25;;;;;;;10.38;2.40;;;;;;;;;;5088509;28;20032;-52
2022/08/20 13:02:53;;;;;;;17.63;2.70;;;;;;;;;;5088962;28;20107;-55
2022/08/20 13:05:20;;;;;;;6.97;2.30;;;;;;;;;;5088217;28;20025;-52
2022/08/20 13:07:47;;;;;;;18.58;2.72;;;;;;;;;;5088125;28;20043;-49
2022/08/20 13:10:16;;;;;;;52.63;6.05;;;;;;;;;;5087103;28;20029;-53
2022/08/20 13:12:43;;;;;;;30.80;4.40;;;;;;;;;;5088152;28;20048;-49
2022/08/20 13:15:11;;;;;;;14.73;3.33;;;;;;;;;;5096011;28;20090;-53
2022/08/20 13:17:38;;;;;;;22.83;3.88;;;;;;;;;;5108693;28;20020;-48
2022/08/20 13:20:06;;;;;;;25.23;3.78;;;;;;;;;;5108562;28;20023;-53
2022/08/20 13:22:33;;;;;;;19.27;3.47;;;;;;;;;;5103730;28;20174;-50
2022/08/20 13:25:00;;;;;;;19.25;3.75;;;;;;;;;;5082448;28;20028;-48
2022/08/20 13:27:27;;;;;;;20.17;3.72;;;;;;;;;;5094733;28;20641;-51
2022/08/20 13:29:55;;;;;;;36.88;4.30;;;;;;;;;;5094555;28;20464;-52
2022/08/20 13:32:22;;;;;;;23.70;3.35;;;;;;;;;;5094799;28;20370;-49
2022/08/20 13:34:50;;;;;;;26.70;3.53;;;;;;;;;;5094657;28;20036;-52
2022/08/20 13:37:19;;;;;;;22.52;3.40;;;;;;;;;;5094914;28;20035;-54
2022/08/20 13:39:46;;;;;;;19.95;3.22;;;;;;;;;;5094394;28;20493;-49
2022/08/20 13:42:13;;;;;;;29.27;3.05;;;;;;;;;;5079328;28;20032;-52
2022/08/20 13:44:40;;;;;;;26.95;3.15;;;;;;;;;;5081680;28;20024;-54
2022/08/20 13:47:14;;;;;;;16.02;3.47;;;;;;;;;;5088819;28;20502;-53
2022/08/20 13:49:41;;;;;;;25.70;2.95;;;;;;;;;;5094079;28;20057;-54
2022/08/20 13:52:08;;;;;;;16.73;3.15;;;;;;;;;;5094703;28;20118;-53
2022/08/20 13:54:35;;;;;;;16.80;2.80;;;;;;;;;;5088591;28;20036;-53
2022/08/20 13:57:06;;;;;;;13.85;3.10;;;;;;;;;;5076039;28;20443;-55
2022/08/20 13:59:37;;;;;;;24.63;3.22;;;;;;;;;;5092340;28;20067;-53
2022/08/20 14:02:05;;;;;;;16.70;3.20;;;;;;;;;;5094583;28;20560;-54
2022/08/20 14:04:31;;;;;;;20.50;2.90;;;;;;;;;;5093998;28;20026;-54
2022/08/20 14:06:58;;;;;;;20.90;2.97;;;;;;;;;;5094503;28;20024;-52
2022/08/20 14:09:26;;;;;;;24.30;3.20;;;;;;;;;;5094363;28;20028;-55
2022/08/20 14:11:52;;;;;;;15.52;2.83;;;;;;;;;;5093683;28;20048;-54
2022/08/20 14:14:19;;;;;;;14.82;2.38;;;;;;;;;;5094331;28;20017;-48
2022/08/20 14:16:47;;;;;;;14.07;2.90;;;;;;;;;;5094379;28;20035;-50
2022/08/20 14:19:14;;;;;;;17.98;3.20;;;;;;;;;;5093650;28;20024;-50
2022/08/20 14:21:40;;;;;;;18.50;2.50;;;;;;;;;;5094251;28;20110;-50
2022/08/20 14:24:07;;;;;;;10.98;2.30;;;;;;;;;;5094391;28;20541;-54
2022/08/20 14:26:34;;;;;;;15.60;2.72;;;;;;;;;;5093557;28;20031;-51
2022/08/20 14:29:02;;;;;;;11.98;2.53;;;;;;;;;;5093825;28;20481;-51
2022/08/20 14:31:29;;;;;;;16.17;2.70;;;;;;;;;;5093902;28;20393;-51
2022/08/20 14:33:56;;;;;;;9.48;2.40;;;;;;;;;;5093513;28;20020;-53
2022/08/20 14:36:23;;;;;;;13.88;2.67;;;;;;;;;;5092873;28;20024;-57
2022/08/20 14:38:50;;;;;;;14.45;2.65;;;;;;;;;;5093808;28;20016;-50
2022/08/20 14:41:17;;;;;;;12.00;2.55;;;;;;;;;;5093167;28;20543;-57
2022/08/20 14:43:44;;;;;;;16.73;2.67;;;;;;;;;;5093872;28;20043;-56
2022/08/20 14:46:10;;;;;;;17.90;2.63;;;;;;;;;;5093762;28;20035;-52
2022/08/20 14:48:37;;;;;;;16.08;3.55;;;;;;;;;;5093039;28;20032;-52
2022/08/20 14:51:08;;;;;;;9.45;2.63;;;;;;;;;;5093731;28;20032;-57